createdAt,value
2023-02-18T00:01:53.614Z,71.80
2023-02-18T00:04:21.542Z,71.80
2023-02-18T00:06:50.029Z,71.60
2023-02-18T00:09:17.904Z,71.40
2023-02-18T00:11:46.226Z,71.40
2023-02-18T00:14:16.140Z,71.10
2023-02-18T00:16:45.419Z,71.40
2023-02-18T00:19:19.158Z,71.50
2023-02-18T00:21:47.518Z,71.70
2023-02-18T00:24:16.794Z,72.10
2023-02-18T00:26:48.133Z,72.50
2023-02-18T00:29:15.895Z,72.90
2023-02-18T00:31:44.711Z,73.20
2023-02-18T00:34:13.921Z,73.50
2023-02-18T00:36:42.421Z,73.70
2023-02-18T00:39:11.549Z,73.80
2023-02-18T00:41:40.794Z,73.70
2023-02-18T00:44:09.268Z,73.50
2023-02-18T00:46:38.137Z,73.00
2023-02-18T00:49:08.077Z,72.30
2023-02-18T00:51:36.881Z,71.80
2023-02-18T00:54:05.259Z,71.60
2023-02-18T00:56:36.774Z,71.20
2023-02-18T00:59:23.368Z,71.00
2023-02-18T01:01:52.294Z,70.60
2023-02-18T01:04:21.794Z,70.20
2023-02-18T01:06:50.889Z,69.70
2023-02-18T01:09:18.844Z,69.20
2023-02-18T01:11:46.923Z,69.00
2023-02-18T01:14:15.803Z,68.90
2023-02-18T01:16:45.623Z,68.40
2023-02-18T01:19:13.460Z,68.70
2023-02-18T01:21:41.683Z,68.60
2023-02-18T01:24:09.569Z,68.30
2023-02-18T01:26:38.063Z,68.50
2023-02-18T01:29:05.835Z,68.00
2023-02-18T01:31:34.058Z,67.90
2023-02-18T01:34:01.770Z,67.70
2023-02-18T01:36:30.462Z,67.60
2023-02-18T01:39:02.265Z,67.50
2023-02-18T01:41:30.684Z,67.50
2023-02-18T01:44:20.578Z,67.30
2023-02-18T01:46:49.660Z,67.40
2023-02-18T01:49:24.154Z,67.50
2023-02-18T01:51:57.590Z,67.30
2023-02-18T01:54:32.218Z,66.90
2023-02-18T01:57:08.499Z,67.00
2023-02-18T02:00:05.266Z,66.90
2023-02-18T02:02:46.417Z,66.70
2023-02-18T02:05:16.462Z,66.10
2023-02-18T02:07:46.947Z,66.10
2023-02-18T02:10:16.124Z,65.90
2023-02-18T02:13:05.289Z,66.10
2023-02-18T02:16:05.861Z,66.10
2023-02-18T02:18:51.907Z,65.70
2023-02-18T02:21:25.241Z,65.50
2023-02-18T02:24:22.820Z,65.30
2023-02-18T02:27:22.815Z,65.10
2023-02-18T02:30:05.342Z,64.90
2023-02-18T02:32:33.182Z,65.00
2023-02-18T02:35:39.243Z,65.00
2023-02-18T02:38:09.496Z,65.00
2023-02-18T02:40:46.896Z,64.90
2023-02-18T02:43:35.927Z,65.00
2023-02-18T02:46:13.387Z,65.00
2023-02-18T02:48:44.213Z,65.20
2023-02-18T02:51:29.690Z,65.40
2023-02-18T02:54:15.597Z,65.30
2023-02-18T02:56:44.225Z,65.30
2023-02-18T02:59:20.761Z,65.30
2023-02-18T03:02:11.081Z,65.10
2023-02-18T03:04:52.852Z,65.40
2023-02-18T03:07:35.917Z,65.40
2023-02-18T03:10:33.406Z,65.60
2023-02-18T03:13:35.653Z,65.70
2023-02-18T03:16:22.579Z,65.80
2023-02-18T03:19:19.169Z,65.80
2023-02-18T03:22:02.187Z,66.00
2023-02-18T03:24:43.029Z,66.20
2023-02-18T03:27:25.466Z,66.10
2023-02-18T03:30:15.171Z,66.10
2023-02-18T03:32:44.808Z,66.10
2023-02-18T03:35:16.683Z,66.10
2023-02-18T03:38:01.433Z,65.90
2023-02-18T03:40:34.364Z,65.90
2023-02-18T03:43:03.187Z,66.00
2023-02-18T03:45:31.612Z,66.00
2023-02-18T03:48:00.036Z,66.00
2023-02-18T03:50:28.557Z,65.90
2023-02-18T03:52:56.699Z,65.70
2023-02-18T03:55:24.810Z,65.60
2023-02-18T03:57:52.776Z,65.50
2023-02-18T04:00:21.682Z,65.30
2023-02-18T04:02:49.661Z,65.30
2023-02-18T04:05:18.076Z,65.30
2023-02-18T04:07:46.097Z,65.20
2023-02-18T04:10:14.377Z,65.30
2023-02-18T04:12:42.098Z,65.00
2023-02-18T04:15:10.526Z,64.70
2023-02-18T04:17:38.331Z,64.40
2023-02-18T04:20:07.791Z,64.50
2023-02-18T04:22:37.503Z,64.50
2023-02-18T04:25:06.720Z,64.00
2023-02-18T04:27:34.566Z,64.10
2023-02-18T04:30:03.958Z,64.00
2023-02-18T04:32:32.396Z,63.60
2023-02-18T04:35:00.688Z,63.60
2023-02-18T04:37:28.449Z,63.70
2023-02-18T04:39:56.989Z,63.60
2023-02-18T04:42:24.864Z,63.40
2023-02-18T04:44:53.005Z,63.20
2023-02-18T04:47:22.307Z,63.40
2023-02-18T04:49:59.558Z,63.40
2023-02-18T04:52:27.758Z,63.30
2023-02-18T04:54:57.288Z,63.40
2023-02-18T04:57:25.995Z,63.10
2023-02-18T04:59:54.716Z,63.10
2023-02-18T05:02:22.653Z,62.90
2023-02-18T05:04:51.348Z,62.90
2023-02-18T05:07:20.193Z,63.10
2023-02-18T05:09:48.565Z,63.30
2023-02-18T05:12:16.327Z,63.40
2023-02-18T05:14:46.116Z,63.30
2023-02-18T05:17:13.841Z,63.20
2023-02-18T05:19:41.968Z,63.20
2023-02-18T05:22:09.654Z,63.10
2023-02-18T05:24:37.699Z,63.20
2023-02-18T05:27:06.455Z,63.40
2023-02-18T05:29:34.479Z,63.40
2023-02-18T05:32:02.673Z,63.60
2023-02-18T05:34:30.787Z,63.70
2023-02-18T05:36:58.514Z,63.80
2023-02-18T05:39:26.821Z,63.80
2023-02-18T05:41:54.679Z,63.90
2023-02-18T05:44:33.688Z,63.90
2023-02-18T05:47:07.402Z,64.00
2023-02-18T05:49:38.478Z,64.00
2023-02-18T05:52:06.555Z,64.00
2023-02-18T05:54:35.780Z,64.00
2023-02-18T05:57:03.572Z,64.10
2023-02-18T05:59:31.728Z,64.00
2023-02-18T06:01:59.800Z,64.00
2023-02-18T06:04:28.317Z,63.70
2023-02-18T06:06:56.757Z,63.70
2023-02-18T06:09:25.344Z,63.70
2023-02-18T06:11:53.204Z,63.80
2023-02-18T06:14:21.411Z,63.80
2023-02-18T06:16:49.612Z,63.50
2023-02-18T06:19:17.951Z,63.50
2023-02-18T06:21:45.785Z,63.60
2023-02-18T06:24:14.089Z,63.50
2023-02-18T06:26:42.317Z,63.50
2023-02-18T06:29:10.460Z,63.50
2023-02-18T06:31:38.574Z,63.50
2023-02-18T06:34:07.080Z,63.40
2023-02-18T06:36:36.712Z,63.60
2023-02-18T06:39:06.277Z,63.60
2023-02-18T06:41:34.146Z,63.60
2023-02-18T06:44:02.304Z,63.60
2023-02-18T06:46:30.098Z,63.60
2023-02-18T06:48:58.411Z,63.60
2023-02-18T06:51:26.846Z,63.70
2023-02-18T06:53:54.982Z,63.60
2023-02-18T06:56:22.712Z,63.60
2023-02-18T06:58:50.779Z,63.60
2023-02-18T07:01:19.533Z,63.50
2023-02-18T07:03:50.203Z,63.60
2023-02-18T07:06:18.252Z,63.70
2023-02-18T07:08:46.683Z,63.70
2023-02-18T07:11:14.656Z,63.90
2023-02-18T07:13:42.912Z,64.00
2023-02-18T07:16:11.962Z,64.00
2023-02-18T07:18:40.371Z,64.10
2023-02-18T07:21:08.962Z,64.10
2023-02-18T07:23:37.351Z,64.10
2023-02-18T07:26:08.116Z,64.10
2023-02-18T07:28:37.116Z,64.20
2023-02-18T07:31:06.184Z,64.30
2023-02-18T07:33:34.941Z,64.30
2023-02-18T07:36:03.791Z,64.50
2023-02-18T07:38:32.444Z,64.50
2023-02-18T07:41:01.681Z,64.50
2023-02-18T07:43:30.407Z,64.50
2023-02-18T07:45:59.450Z,64.60
2023-02-18T07:48:28.436Z,64.60
2023-02-18T07:50:56.228Z,64.70
2023-02-18T07:53:24.504Z,64.80
2023-02-18T07:55:54.030Z,64.90
2023-02-18T07:58:29.763Z,65.00
2023-02-18T08:00:58.514Z,65.00
2023-02-18T08:03:34.660Z,65.00
2023-02-18T08:06:04.391Z,65.10
2023-02-18T08:08:35.924Z,65.10
2023-02-18T08:11:18.630Z,65.20
2023-02-18T08:13:49.534Z,65.20
2023-02-18T08:16:20.803Z,65.30
2023-02-18T08:18:54.885Z,65.30
2023-02-18T08:21:29.200Z,65.40
2023-02-18T08:23:59.702Z,65.50
2023-02-18T08:26:27.954Z,65.60
2023-02-18T08:29:00.026Z,65.60
2023-02-18T08:31:30.662Z,65.70
2023-02-18T08:34:01.399Z,65.80
2023-02-18T08:36:30.704Z,65.90
2023-02-18T08:38:59.086Z,66.10
2023-02-18T08:41:31.875Z,66.20
2023-02-18T08:44:02.407Z,66.40
2023-02-18T08:46:36.036Z,66.50
2023-02-18T08:49:06.452Z,66.70
2023-02-18T08:51:35.282Z,66.90
2023-02-18T08:54:08.287Z,67.10
2023-02-18T08:56:38.620Z,67.20
2023-02-18T08:59:07.038Z,67.60
2023-02-18T09:01:35.285Z,67.70
2023-02-18T09:04:04.159Z,67.90
2023-02-18T09:06:33.211Z,68.00
2023-02-18T09:09:02.046Z,68.20
2023-02-18T09:11:31.716Z,68.30
2023-02-18T09:14:01.192Z,68.50
2023-02-18T09:16:30.476Z,68.60
2023-02-18T09:18:59.312Z,68.70
2023-02-18T09:21:29.574Z,68.80
2023-02-18T09:23:59.421Z,69.00
2023-02-18T09:26:27.884Z,69.20
2023-02-18T09:28:57.599Z,69.50
2023-02-18T09:31:26.877Z,69.80
2023-02-18T09:33:58.360Z,70.00
2023-02-18T09:36:27.705Z,70.10
2023-02-18T09:38:56.762Z,70.20
2023-02-18T09:41:48.790Z,70.40
2023-02-18T09:44:32.834Z,70.80
2023-02-18T09:47:02.711Z,71.00
2023-02-18T09:49:36.144Z,70.90
2023-02-18T09:52:19.532Z,70.80
2023-02-18T09:54:50.474Z,70.80
2023-02-18T09:57:44.196Z,70.80
2023-02-18T10:00:37.944Z,71.20
2023-02-18T10:03:12.925Z,71.20
2023-02-18T10:06:03.259Z,71.10
2023-02-18T10:08:45.689Z,71.30
2023-02-18T10:11:29.454Z,71.40
2023-02-18T10:14:01.308Z,71.60
2023-02-18T10:16:39.301Z,71.80
2023-02-18T10:19:25.774Z,71.80
2023-02-18T10:21:55.717Z,72.00
2023-02-18T10:24:32.218Z,72.10
2023-02-18T10:27:05.813Z,72.20
2023-02-18T10:29:37.394Z,72.30
2023-02-18T10:32:21.043Z,72.30
2023-02-18T10:35:24.893Z,72.40
2023-02-18T10:38:34.406Z,72.60
2023-02-18T10:41:08.704Z,72.80
2023-02-18T10:44:00.065Z,73.00
2023-02-18T10:47:11.469Z,73.20
2023-02-18T10:50:00.874Z,73.20
2023-02-18T10:52:35.457Z,73.30
2023-02-18T10:55:10.009Z,73.30
2023-02-18T10:57:55.912Z,73.50
2023-02-18T11:00:27.698Z,73.60
2023-02-18T11:03:17.624Z,73.90
2023-02-18T11:05:47.533Z,74.10
2023-02-18T11:08:21.306Z,74.00
2023-02-18T11:10:50.403Z,74.30
2023-02-18T11:13:35.745Z,74.50
2023-02-18T11:16:11.799Z,74.80
2023-02-18T11:18:47.195Z,74.70
2023-02-18T11:21:28.140Z,74.80
2023-02-18T11:24:09.633Z,74.90
2023-02-18T11:26:40.304Z,74.90
2023-02-18T11:29:21.876Z,75.00
2023-02-18T11:31:54.040Z,75.00
2023-02-18T11:34:29.081Z,75.00
2023-02-18T11:37:10.520Z,75.00
2023-02-18T11:39:45.165Z,75.20
2023-02-18T11:42:16.820Z,75.30
2023-02-18T11:44:59.622Z,75.50
2023-02-18T11:47:36.285Z,75.70
2023-02-18T11:50:15.103Z,75.70
2023-02-18T11:52:49.705Z,75.70
2023-02-18T11:55:31.296Z,75.90
2023-02-18T11:58:02.653Z,75.90
2023-02-18T12:00:46.645Z,76.00
2023-02-18T12:03:47.510Z,76.20
2023-02-18T12:06:38.786Z,76.40
2023-02-18T12:09:49.766Z,76.30
2023-02-18T12:12:51.786Z,76.40
2023-02-18T12:15:31.648Z,76.50
2023-02-18T12:18:33.629Z,76.70
2023-02-18T12:21:13.924Z,77.30
2023-02-18T12:24:11.341Z,77.30
2023-02-18T12:27:10.838Z,77.90
2023-02-18T12:30:17.537Z,78.60
2023-02-18T12:33:13.078Z,79.60
2023-02-18T12:36:11.363Z,79.90
2023-02-18T12:39:17.070Z,80.40
2023-02-18T12:41:59.482Z,80.40
2023-02-18T12:45:04.063Z,80.70
2023-02-18T12:48:19.279Z,81.80
2023-02-18T12:51:13.153Z,82.00
2023-02-18T12:54:02.103Z,82.30
2023-02-18T12:57:00.213Z,82.10
2023-02-18T12:59:44.137Z,82.60
2023-02-18T13:02:31.342Z,82.60
2023-02-18T13:05:05.062Z,83.00
2023-02-18T13:08:15.032Z,82.80
2023-02-18T13:11:10.277Z,83.20
2023-02-18T13:13:47.014Z,83.20
2023-02-18T13:16:21.358Z,83.20
2023-02-18T13:19:29.364Z,83.40
2023-02-18T13:22:13.890Z,83.70
2023-02-18T13:25:05.766Z,83.50
2023-02-18T13:27:48.633Z,83.40
2023-02-18T13:30:49.685Z,83.70
2023-02-18T13:33:48.304Z,83.70
2023-02-18T13:36:37.322Z,83.90
2023-02-18T13:39:22.509Z,83.90
2023-02-18T13:42:37.222Z,83.70
2023-02-18T13:45:24.091Z,84.00
2023-02-18T13:51:50.664Z,84.00
2023-02-18T13:54:27.647Z,84.40
2023-02-18T13:57:03.880Z,84.20
2023-02-18T13:59:51.592Z,84.20
2023-02-18T14:02:48.429Z,84.20
2023-02-18T14:05:40.178Z,84.20
2023-02-18T14:08:29.408Z,84.70
2023-02-18T14:11:33.852Z,84.90
2023-02-18T14:14:20.748Z,85.00
2023-02-18T14:17:29.732Z,85.00
2023-02-18T14:20:21.298Z,85.50
2023-02-18T14:22:52.340Z,85.50
2023-02-18T14:25:40.172Z,85.50
2023-02-18T14:28:39.202Z,85.70
2023-02-18T14:31:13.481Z,85.60
2023-02-18T14:34:01.323Z,85.40
2023-02-18T14:36:42.041Z,85.30
2023-02-18T14:39:33.663Z,85.10
2023-02-18T14:42:26.136Z,85.10
2023-02-18T14:45:33.168Z,85.00
2023-02-18T14:48:20.604Z,84.90
2023-02-18T14:50:53.272Z,84.60
2023-02-18T14:53:25.598Z,84.50
2023-02-18T14:56:04.865Z,84.50
2023-02-18T14:58:42.426Z,84.60
2023-02-18T15:01:24.425Z,84.70
2023-02-18T15:03:55.077Z,84.70
2023-02-18T15:06:37.493Z,84.70
2023-02-18T15:09:23.243Z,84.80
2023-02-18T15:11:56.837Z,85.10
2023-02-18T15:14:45.818Z,85.10
2023-02-18T15:17:20.973Z,85.40
2023-02-18T15:19:53.962Z,85.40
2023-02-18T15:22:26.068Z,85.40
2023-02-18T15:24:56.156Z,85.40
2023-02-18T15:27:37.446Z,85.30
2023-02-18T15:30:29.257Z,85.20
2023-02-18T15:33:02.032Z,85.10
2023-02-18T15:35:37.102Z,84.90
2023-02-18T15:38:06.084Z,84.80
2023-02-18T15:40:38.533Z,84.70
2023-02-18T15:43:12.081Z,84.60
2023-02-18T15:45:47.523Z,84.40
2023-02-18T15:48:33.283Z,84.30
2023-02-18T15:51:17.033Z,84.00
2023-02-18T15:53:50.240Z,84.00
2023-02-18T15:56:33.356Z,84.00
2023-02-18T15:59:29.510Z,84.00
2023-02-18T16:02:18.447Z,84.10
2023-02-18T16:05:17.582Z,84.00
2023-02-18T16:07:58.369Z,84.00
2023-02-18T16:10:37.607Z,84.00
2023-02-18T16:13:07.651Z,84.10
2023-02-18T16:15:44.238Z,84.20
2023-02-18T16:18:30.823Z,84.20
2023-02-18T16:21:03.003Z,84.30
2023-02-18T16:23:37.297Z,84.20
2023-02-18T16:26:28.202Z,84.40
2023-02-18T16:29:21.838Z,84.50
2023-02-18T16:31:51.178Z,84.40
2023-02-18T16:34:21.391Z,84.50
2023-02-18T16:37:09.252Z,84.50
2023-02-18T16:39:37.840Z,84.50
2023-02-18T16:42:15.582Z,84.60
2023-02-18T16:44:44.152Z,84.70
2023-02-18T16:47:22.601Z,84.80
2023-02-18T16:49:52.531Z,85.00
2023-02-18T16:52:21.200Z,85.10
2023-02-18T16:54:52.446Z,85.20
2023-02-18T16:57:30.155Z,85.30
2023-02-18T16:59:59.561Z,85.40
2023-02-18T17:02:31.647Z,85.40
2023-02-18T17:05:00.249Z,85.40
2023-02-18T17:07:29.423Z,85.40
2023-02-18T17:09:59.810Z,85.40
2023-02-18T17:12:28.769Z,85.40
2023-02-18T17:14:56.797Z,85.30
2023-02-18T17:17:25.853Z,85.30
2023-02-18T17:19:54.690Z,85.30
2023-02-18T17:22:26.615Z,85.30
2023-02-18T17:24:55.323Z,85.40
2023-02-18T17:27:24.905Z,85.40
2023-02-18T17:29:53.877Z,85.20
2023-02-18T17:32:28.755Z,85.10
2023-02-18T17:35:00.386Z,85.10
2023-02-18T17:37:30.242Z,85.00
2023-02-18T17:39:59.269Z,84.90
2023-02-18T17:42:30.897Z,84.80
2023-02-18T17:45:01.680Z,84.90
2023-02-18T17:47:30.900Z,84.90
2023-02-18T17:50:00.424Z,85.10
2023-02-18T17:52:35.220Z,85.10
2023-02-18T17:55:19.579Z,85.30
2023-02-18T17:57:50.143Z,85.40
2023-02-18T18:00:24.070Z,85.40
2023-02-18T18:03:12.241Z,85.50
2023-02-18T18:05:47.016Z,85.70
2023-02-18T18:08:21.502Z,85.50
2023-02-18T18:10:59.385Z,85.50
2023-02-18T18:13:33.282Z,85.50
2023-02-18T18:16:02.971Z,85.50
2023-02-18T18:18:39.258Z,85.40
2023-02-18T18:21:24.783Z,85.20
2023-02-18T18:23:59.926Z,85.10
2023-02-18T18:26:28.807Z,85.00
2023-02-18T18:28:59.594Z,85.10
2023-02-18T18:31:31.274Z,85.10
2023-02-18T18:34:05.670Z,85.20
2023-02-18T18:36:39.679Z,85.10
2023-02-18T18:39:12.657Z,85.10
2023-02-18T18:41:48.491Z,85.00
2023-02-18T18:44:19.469Z,85.00
2023-02-18T18:46:51.325Z,85.20
2023-02-18T18:49:24.303Z,85.30
2023-02-18T18:51:56.803Z,85.40
2023-02-18T18:54:31.370Z,85.50
2023-02-18T18:57:00.756Z,85.50
2023-02-18T18:59:30.957Z,85.50
2023-02-18T19:02:01.095Z,85.50
2023-02-18T19:04:31.602Z,85.50
2023-02-18T19:07:01.340Z,85.60
2023-02-18T19:09:30.866Z,85.60
2023-02-18T19:12:01.813Z,85.50
2023-02-18T19:14:31.275Z,85.70
2023-02-18T19:17:00.602Z,85.80
2023-02-18T19:19:34.850Z,85.90
2023-02-18T19:22:05.064Z,85.90
2023-02-18T19:24:35.253Z,86.00
2023-02-18T19:27:06.041Z,86.20
2023-02-18T19:29:37.012Z,86.30
2023-02-18T19:32:07.866Z,86.30
2023-02-18T19:34:39.371Z,86.30
2023-02-18T19:37:09.076Z,86.40
2023-02-18T19:39:39.592Z,86.40
2023-02-18T19:42:11.026Z,86.40
2023-02-18T19:44:42.029Z,86.50
2023-02-18T19:47:11.596Z,86.50
2023-02-18T19:49:41.997Z,86.50
2023-02-18T19:52:11.527Z,86.50
2023-02-18T19:54:41.538Z,86.50
2023-02-18T19:57:11.272Z,86.60
2023-02-18T19:59:41.913Z,86.70
2023-02-18T20:02:16.609Z,86.70
2023-02-18T20:04:50.322Z,86.80
2023-02-18T20:07:22.760Z,86.70
2023-02-18T20:09:54.268Z,86.70
2023-02-18T20:12:25.357Z,86.70
2023-02-18T20:15:07.048Z,86.70
2023-02-18T20:17:36.159Z,86.60
2023-02-18T20:20:06.206Z,86.60
2023-02-18T20:22:39.587Z,86.70
2023-02-18T20:25:10.441Z,86.80
2023-02-18T20:27:54.666Z,86.80
2023-02-18T20:30:31.185Z,86.90
2023-02-18T20:33:05.349Z,86.80
2023-02-18T20:35:34.549Z,86.80
2023-02-18T20:38:04.695Z,86.80
2023-02-18T20:40:36.095Z,87.00
2023-02-18T20:43:06.026Z,87.00
2023-02-18T20:45:36.754Z,87.00
2023-02-18T20:48:06.672Z,87.10
2023-02-18T20:50:38.033Z,86.70
2023-02-18T20:53:07.324Z,86.70
2023-02-18T20:55:37.937Z,86.70
2023-02-18T20:58:07.539Z,86.80
2023-02-18T21:00:38.081Z,86.70
2023-02-18T21:03:07.474Z,86.50
2023-02-18T21:05:39.182Z,86.60
2023-02-18T21:08:08.229Z,86.60
2023-02-18T21:10:41.305Z,86.60
2023-02-18T21:13:11.434Z,86.70
2023-02-18T21:15:42.114Z,86.70
2023-02-18T21:18:15.149Z,86.70
2023-02-18T21:20:46.186Z,86.80
2023-02-18T21:23:17.568Z,86.90
2023-02-18T21:25:51.819Z,87.00
2023-02-18T21:28:22.283Z,86.90
2023-02-18T21:30:52.964Z,86.80
2023-02-18T21:33:22.456Z,86.80
2023-02-18T21:35:52.677Z,86.80
2023-02-18T21:38:21.992Z,86.80
2023-02-18T21:40:55.135Z,86.80
2023-02-18T21:43:24.404Z,86.90
2023-02-18T21:45:54.145Z,86.80
2023-02-18T21:48:41.617Z,86.80
2023-02-18T21:51:32.775Z,86.80
2023-02-18T21:54:02.714Z,86.80
2023-02-18T21:56:33.643Z,86.80
2023-02-18T21:59:03.648Z,86.80
2023-02-18T22:01:34.086Z,86.80
2023-02-18T22:04:02.671Z,86.80
2023-02-18T22:06:31.503Z,86.80
2023-02-18T22:09:04.228Z,86.90
2023-02-18T22:11:34.130Z,87.00
2023-02-18T22:14:02.488Z,87.00
2023-02-18T22:16:31.774Z,87.00
2023-02-18T22:19:00.394Z,87.00
2023-02-18T22:21:29.080Z,87.10
2023-02-18T22:23:57.532Z,87.20
2023-02-18T22:26:26.049Z,87.20
2023-02-18T22:28:57.897Z,87.20
2023-02-18T22:31:29.266Z,87.20
2023-02-18T22:33:59.138Z,87.30
2023-02-18T22:36:29.736Z,87.50
2023-02-18T22:39:00.820Z,87.50
2023-02-18T22:41:31.537Z,87.60
2023-02-18T22:44:03.064Z,87.60
2023-02-18T22:46:33.729Z,87.70
2023-02-18T22:49:03.630Z,87.70
2023-02-18T22:51:40.079Z,87.70
2023-02-18T22:54:12.216Z,87.80
2023-02-18T22:56:40.897Z,87.80
2023-02-18T22:59:10.972Z,87.70
2023-02-18T23:01:49.837Z,87.80
2023-02-18T23:04:19.708Z,87.80
2023-02-18T23:06:49.627Z,87.90
2023-02-18T23:09:24.331Z,88.00
2023-02-18T23:11:57.274Z,88.00
2023-02-18T23:14:28.505Z,88.00
2023-02-18T23:17:19.873Z,88.00
2023-02-18T23:19:49.277Z,88.00
2023-02-18T23:22:28.619Z,88.00
2023-02-18T23:24:57.035Z,88.00
2023-02-18T23:27:27.308Z,88.00
2023-02-18T23:29:57.674Z,88.10
2023-02-18T23:32:28.925Z,88.10
2023-02-18T23:34:57.587Z,88.10
2023-02-18T23:37:46.085Z,88.10
2023-02-18T23:40:15.354Z,88.10
2023-02-18T23:42:44.059Z,88.10
2023-02-18T23:45:12.581Z,88.10
2023-02-18T23:47:41.082Z,88.20
2023-02-18T23:50:09.897Z,88.20
2023-02-18T23:52:37.904Z,88.30
2023-02-18T23:55:06.169Z,88.30
2023-02-18T23:57:34.583Z,88.30
